Time;durP1;ratioP1;P1;durP2;ratioP2;P2;SDS_P1;SDS_P2;PMS_P1;PMS_P2;Temp;Humidity;BMP_temperature;BMP_pressure;BME280_temperature;BME280_humidity;BME280_pressure;Samples;Min_cycle;Max_cycle;Signal;HPM_P1;HPM_P2
2024/03/27 00:00:32;;;;;;;9.80;4.20;;;;;;;5.07;58.10;100375.91;105798;1259;61278;-56
2024/03/27 00:02:59;;;;;;;10.00;3.60;;;;;;;4.98;58.15;100378.16;105268;1258;61440;-56
2024/03/27 00:05:27;;;;;;;11.10;3.50;;;;;;;4.92;58.27;100381.60;105589;1259;66272;-56
2024/03/27 00:07:55;;;;;;;9.80;4.00;;;;;;;4.88;58.35;100380.29;105206;1253;61369;-55
2024/03/27 00:10:23;;;;;;;11.10;4.40;;;;;;;4.84;58.44;100385.88;105942;1254;63941;-57
2024/03/27 00:12:51;;;;;;;10.90;4.50;;;;;;;4.79;58.29;100381.80;105168;1257;61274;-56
2024/03/27 00:15:19;;;;;;;11.30;4.70;;;;;;;4.74;58.29;100380.89;105183;1259;61344;-59
2024/03/27 00:17:47;;;;;;;10.00;4.20;;;;;;;4.68;58.28;100381.20;105337;1253;65705;-56
2024/03/27 00:20:14;;;;;;;7.40;3.40;;;;;;;4.61;58.29;100383.13;105262;1257;61689;-56
2024/03/27 00:22:43;;;;;;;9.50;4.00;;;;;;;4.54;58.16;100387.91;105328;1254;63724;-57
2024/03/27 00:25:11;;;;;;;9.40;4.40;;;;;;;4.48;58.20;100389.99;106239;1257;61254;-56
2024/03/27 00:27:41;;;;;;;9.40;4.40;;;;;;;4.42;58.30;100387.84;105349;1253;61258;-57
2024/03/27 00:30:10;;;;;;;8.40;4.30;;;;;;;4.37;58.39;100393.30;105275;1253;64485;-58
2024/03/27 00:32:37;;;;;;;10.60;3.70;;;;;;;4.33;58.44;100400.86;105438;1254;61777;-59
2024/03/27 00:35:05;;;;;;;15.00;9.30;;;;;;;4.27;58.53;100403.41;105258;1254;64305;-54
2024/03/27 00:37:33;;;;;;;8.30;4.10;;;;;;;4.26;58.53;100405.89;105655;1255;61263;-56
2024/03/27 00:40:00;;;;;;;9.00;2.90;;;;;;;4.31;58.58;100409.80;105138;1254;61430;-56
2024/03/27 00:42:28;;;;;;;6.70;2.70;;;;;;;4.35;58.61;100412.02;106582;1253;65780;-56
2024/03/27 00:44:55;;;;;;;5.40;2.10;;;;;;;4.38;58.70;100414.31;105231;1257;61270;-57
2024/03/27 00:47:23;;;;;;;7.10;1.90;;;;;;;4.42;58.75;100416.69;105742;1253;63693;-56
2024/03/27 00:49:50;;;;;;;8.20;2.50;;;;;;;4.49;58.89;100420.27;105822;1254;61468;-56
2024/03/27 00:52:18;;;;;;;9.20;3.50;;;;;;;4.57;58.86;100424.36;105388;1253;61151;-56
2024/03/27 00:54:45;;;;;;;9.00;3.60;;;;;;;4.61;58.75;100427.66;105343;1255;65717;-58
2024/03/27 00:57:13;;;;;;;12.20;5.80;;;;;;;4.60;58.60;100428.89;105191;1254;61384;-59
2024/03/27 00:59:40;;;;;;;13.50;4.40;;;;;;;4.62;58.54;100428.48;105410;1256;62500;-59
2024/03/27 01:02:08;;;;;;;10.70;4.20;;;;;;;4.59;58.40;100431.91;105152;1253;63873;-58
2024/03/27 01:04:35;;;;;;;9.50;4.40;;;;;;;4.55;58.31;100430.92;105441;1254;61312;-58
2024/03/27 01:07:03;;;;;;;14.10;5.10;;;;;;;4.50;58.13;100428.60;105261;1253;64506;-58
2024/03/27 01:09:31;;;;;;;12.80;5.50;;;;;;;4.43;58.06;100425.00;105456;1254;61376;-58
2024/03/27 01:11:58;;;;;;;12.60;6.00;;;;;;;4.34;57.96;100423.21;105165;1254;66648;-59
2024/03/27 01:14:26;;;;;;;10.80;4.60;;;;;;;4.25;58.10;100424.33;105006;1253;61339;-58
2024/03/27 01:16:53;;;;;;;11.70;5.40;;;;;;;4.22;58.12;100425.58;105260;1254;61334;-58
2024/03/27 01:19:21;;;;;;;12.20;4.70;;;;;;;4.17;58.02;100424.96;105181;1258;66301;-58
2024/03/27 01:21:48;;;;;;;12.50;7.90;;;;;;;4.13;58.13;100420.52;105275;1257;61392;-59
2024/03/27 01:24:16;;;;;;;15.50;8.60;;;;;;;4.11;58.21;100423.38;105235;1254;62582;-58
2024/03/27 01:26:43;;;;;;;11.20;5.00;;;;;;;4.09;58.33;100423.64;105189;1258;61349;-58
2024/03/27 01:29:11;;;;;;;13.70;6.20;;;;;;;4.06;58.39;100423.80;105237;1254;61333;-57
2024/03/27 01:31:39;;;;;;;10.90;5.10;;;;;;;4.03;58.45;100426.70;105001;1253;64433;-58
2024/03/27 01:34:06;;;;;;;14.60;5.60;;;;;;;4.02;58.40;100432.53;105171;1254;61525;-58
2024/03/27 01:36:34;;;;;;;12.40;5.20;;;;;;;3.98;58.43;100436.19;105186;1254;63751;-54
2024/03/27 01:39:01;;;;;;;9.40;5.10;;;;;;;3.92;58.45;100439.96;105722;1258;61359;-58
2024/03/27 01:41:29;;;;;;;10.40;4.40;;;;;;;3.88;58.50;100443.47;105474;1253;61355;-56
2024/03/27 01:43:57;;;;;;;10.20;4.90;;;;;;;3.89;58.61;100443.55;105176;1254;64484;-58
2024/03/27 01:46:25;;;;;;;7.70;3.10;;;;;;;3.93;58.75;100448.94;105706;1255;61232;-60
2024/03/27 01:48:53;;;;;;;10.20;5.40;;;;;;;3.98;58.93;100453.70;105261;1255;63765;-59
2024/03/27 01:51:21;;;;;;;13.90;3.70;;;;;;;4.06;59.01;100455.56;106699;1253;61337;-58
2024/03/27 01:53:50;;;;;;;10.30;5.20;;;;;;;4.14;58.85;100455.33;106701;1256;61238;-57
2024/03/27 01:56:18;;;;;;;14.30;5.20;;;;;;;4.21;58.83;100458.25;105279;1258;66181;-58
2024/03/27 01:58:46;;;;;;;12.10;6.10;;;;;;;4.24;58.81;100459.14;105152;1259;61523;-58
2024/03/27 02:01:13;;;;;;;13.10;5.50;;;;;;;4.24;58.83;100462.60;106005;1254;73194;-58
2024/03/27 02:03:41;;;;;;;11.30;5.70;;;;;;;4.24;58.81;100462.60;105289;1253;64067;-58
2024/03/27 02:06:08;;;;;;;11.70;5.60;;;;;;;4.21;58.69;100460.34;105202;1257;61203;-58
2024/03/27 02:08:35;;;;;;;11.40;6.30;;;;;;;4.16;58.65;100462.55;105215;1253;65722;-60
2024/03/27 02:11:03;;;;;;;16.20;6.20;;;;;;;4.06;58.76;100462.33;105120;1254;61407;-58
2024/03/27 02:13:31;;;;;;;14.70;6.40;;;;;;;3.99;58.91;100460.42;106502;1254;63857;-57
2024/03/27 02:15:59;;;;;;;16.60;7.30;;;;;;;3.94;58.95;100464.33;105121;1252;61256;-58
2024/03/27 02:18:27;;;;;;;13.60;6.30;;;;;;;3.87;59.02;100466.07;105658;1257;61241;-59
2024/03/27 02:20:54;;;;;;;15.10;7.30;;;;;;;3.83;59.11;100472.52;105236;1253;64878;-59
2024/03/27 02:23:23;;;;;;;9.10;4.00;;;;;;;3.81;59.12;100476.08;105074;1253;63985;-59
2024/03/27 02:26:26;;;;;;;11.80;5.80;;;;;;;3.77;59.22;100472.31;105846;1254;63749;-56
2024/03/27 02:28:54;;;;;;;12.50;5.70;;;;;;;3.71;59.21;100470.35;105719;1253;61351;-59
2024/03/27 02:31:22;;;;;;;13.80;6.30;;;;;;;3.66;59.18;100469.07;105311;1257;61148;-59
2024/03/27 02:33:49;;;;;;;13.70;6.20;;;;;;;3.61;59.28;100468.27;105422;1251;65814;-59
2024/03/27 02:36:16;;;;;;;16.10;6.00;;;;;;;3.56;59.34;100466.93;105262;1258;61772;-58
2024/03/27 02:38:44;;;;;;;12.70;7.10;;;;;;;3.51;59.45;100465.09;105213;1253;63756;-58
2024/03/27 02:41:11;;;;;;;11.50;5.70;;;;;;;3.48;59.47;100470.60;105264;1254;61350;-58
2024/03/27 02:43:39;;;;;;;11.90;3.60;;;;;;;3.50;59.33;100475.01;105361;1255;61248;-59
2024/03/27 02:46:06;;;;;;;9.40;3.30;;;;;;;3.55;59.21;100476.33;105323;1257;65768;-58
2024/03/27 02:48:34;;;;;;;10.90;4.60;;;;;;;3.60;59.18;100474.55;105180;1257;61486;-59
2024/03/27 02:51:02;;;;;;;9.30;3.10;;;;;;;3.65;59.17;100475.85;105130;1256;62472;-58
2024/03/27 02:53:29;;;;;;;11.20;4.00;;;;;;;3.70;59.03;100474.39;105714;1257;61265;-59
2024/03/27 02:55:57;;;;;;;10.20;3.60;;;;;;;3.75;59.05;100479.52;105265;1253;61244;-60
2024/03/27 02:58:24;;;;;;;8.80;4.30;;;;;;;3.85;59.25;100482.50;105202;1254;64450;-59
2024/03/27 03:00:53;;;;;;;11.90;6.70;;;;;;;3.91;59.22;100480.09;105841;1253;61840;-60
2024/03/27 03:03:21;;;;;;;16.20;6.50;;;;;;;3.96;59.22;100486.66;105837;1253;62480;-59
2024/03/27 03:05:49;;;;;;;19.60;13.60;;;;;;;3.97;59.08;100491.80;105828;1257;61399;-59
2024/03/27 03:08:17;;;;;;;14.50;6.60;;;;;;;3.95;58.86;100492.59;105377;1257;61147;-60
2024/03/27 03:10:44;;;;;;;12.20;7.10;;;;;;;3.91;58.77;100485.16;105275;1257;65804;-59
2024/03/27 03:13:12;;;;;;;16.00;7.10;;;;;;;3.85;58.63;100484.55;105185;1254;61449;-58
2024/03/27 03:15:39;;;;;;;14.80;6.90;;;;;;;3.78;58.60;100481.62;105294;1257;63735;-57
2024/03/27 03:18:07;;;;;;;14.70;7.60;;;;;;;3.70;58.65;100479.06;105166;1254;61342;-59
2024/03/27 03:20:34;;;;;;;11.70;5.40;;;;;;;3.61;58.50;100481.94;105231;1254;61285;-59
2024/03/27 03:23:02;;;;;;;13.30;7.30;;;;;;;3.51;58.62;100489.36;105180;1253;65941;-59
2024/03/27 03:25:29;;;;;;;16.10;7.50;;;;;;;3.44;58.85;100491.43;105583;1257;61532;-58
2024/03/27 03:27:57;;;;;;;14.90;7.50;;;;;;;3.40;59.06;100490.96;105643;1253;63677;-59
2024/03/27 03:30:24;;;;;;;12.90;6.30;;;;;;;3.36;59.20;100493.05;106628;1253;61275;-59
2024/03/27 03:32:52;;;;;;;13.40;7.50;;;;;;;3.32;59.30;100494.99;105360;1256;61279;-60
2024/03/27 03:35:19;;;;;;;17.30;8.70;;;;;;;3.28;59.57;100497.06;105131;1253;65778;-60
2024/03/27 03:37:47;;;;;;;12.30;6.10;;;;;;;3.26;59.70;100494.40;105197;1253;61509;-60
2024/03/27 03:40:14;;;;;;;13.50;6.50;;;;;;;3.24;59.81;100490.52;109139;1253;63792;-60
2024/03/27 03:42:42;;;;;;;12.10;6.20;;;;;;;3.29;59.79;100490.28;106053;1255;61418;-59
2024/03/27 03:45:09;;;;;;;11.30;4.40;;;;;;;3.37;59.58;100492.30;105058;1253;61346;-59
2024/03/27 03:47:37;;;;;;;9.50;4.80;;;;;;;3.45;59.48;100494.00;105329;1254;65645;-60
2024/03/27 03:50:05;;;;;;;14.30;6.00;;;;;;;3.52;59.43;100500.73;105163;1257;61470;-59
2024/03/27 03:52:32;;;;;;;13.50;5.40;;;;;;;3.59;59.39;100504.24;105485;1253;63701;-59
2024/03/27 03:54:59;;;;;;;11.80;5.10;;;;;;;3.65;59.27;100500.12;105271;1254;61374;-59
2024/03/27 03:57:27;;;;;;;13.80;7.00;;;;;;;3.70;59.24;100499.70;105236;1253;61271;-59
2024/03/27 03:59:55;;;;;;;14.80;6.90;;;;;;;3.74;59.35;100504.55;105131;1254;65840;-59
2024/03/27 04:02:22;;;;;;;21.20;16.40;;;;;;;3.76;59.32;100509.69;105367;1253;61985;-60
2024/03/27 04:04:50;;;;;;;14.60;6.10;;;;;;;3.76;59.25;100515.05;105899;1256;62466;-59
2024/03/27 04:07:18;;;;;;;16.20;7.30;;;;;;;3.75;59.11;100519.29;105309;1257;61366;-57
2024/03/27 04:09:45;;;;;;;12.80;7.20;;;;;;;3.70;58.97;100515.34;105132;1253;61329;-58
2024/03/27 04:12:13;;;;;;;18.50;8.90;;;;;;;3.66;59.14;100517.46;105265;1257;68699;-57
2024/03/27 04:14:40;;;;;;;15.60;7.70;;;;;;;3.63;59.31;100518.28;105375;1253;61933;-59
2024/03/27 04:17:08;;;;;;;14.60;7.40;;;;;;;3.60;59.41;100517.90;105304;1258;63747;-58
2024/03/27 04:19:35;;;;;;;18.80;8.00;;;;;;;3.55;59.38;100515.20;104956;1253;347358;-59
2024/03/27 04:23:55;;;;;;;18.50;9.80;;;;;;;3.12;60.59;100515.66;102379;1289;600320;-57
2024/03/27 04:26:23;;;;;;;15.90;8.40;;;;;;;3.38;59.81;100518.61;107466;1267;57473;-59
2024/03/27 04:28:50;;;;;;;20.70;11.20;;;;;;;3.38;59.77;100518.64;104383;1269;59558;-58
2024/03/27 04:31:19;;;;;;;21.00;9.40;;;;;;;3.37;59.90;100516.59;105497;1267;64143;-58
2024/03/27 04:33:46;;;;;;;18.20;9.10;;;;;;;3.37;59.93;100516.75;105505;1269;61438;-55
2024/03/27 04:36:14;;;;;;;18.90;7.80;;;;;;;3.38;59.98;100515.70;104361;1268;65831;-58
2024/03/27 04:38:42;;;;;;;13.00;5.90;;;;;;;3.42;59.96;100517.04;104675;1267;260807;-60
2024/03/27 04:41:09;;;;;;;13.80;4.90;;;;;;;3.51;59.99;100520.92;104647;1260;59726;-58
2024/03/27 04:43:39;;;;;;;11.50;6.10;;;;;;;3.62;59.92;100521.97;105194;1260;62818;-59
2024/03/27 04:46:06;;;;;;;9.70;5.70;;;;;;;3.72;60.01;100521.98;106347;1257;61954;-59
2024/03/27 04:48:34;;;;;;;14.80;7.30;;;;;;;3.84;60.23;100520.70;105327;1260;62886;-58
2024/03/27 04:51:01;;;;;;;12.20;6.30;;;;;;;3.99;60.41;100522.61;105043;1259;60696;-58
2024/03/27 04:53:30;;;;;;;13.40;7.20;;;;;;;4.11;60.39;100520.56;105481;1254;60313;-59
2024/03/27 04:55:57;;;;;;;19.30;10.20;;;;;;;4.21;60.63;100516.95;105236;1254;64929;-58
2024/03/27 04:58:25;;;;;;;15.90;7.70;;;;;;;4.28;60.78;100513.83;105143;1260;60497;-60
2024/03/27 05:00:52;;;;;;;16.80;8.90;;;;;;;4.36;61.11;100510.11;105120;1260;62510;-59
2024/03/27 05:03:20;;;;;;;16.90;8.90;;;;;;;4.43;61.15;100511.83;105727;1257;60469;-59
2024/03/27 05:05:48;;;;;;;19.60;9.70;;;;;;;4.48;61.13;100512.61;105808;1254;59910;-59
2024/03/27 05:08:16;;;;;;;18.80;8.20;;;;;;;4.51;61.05;100515.40;105356;1254;65524;-59
2024/03/27 05:10:44;;;;;;;22.30;9.50;;;;;;;4.53;61.23;100509.23;105153;1254;61290;-60
2024/03/27 05:13:11;;;;;;;16.00;8.40;;;;;;;4.57;61.42;100509.50;105327;1259;72223;-57
2024/03/27 05:15:39;;;;;;;15.30;8.50;;;;;;;4.60;61.56;100509.39;105131;1257;60476;-59
2024/03/27 05:18:07;;;;;;;13.60;7.80;;;;;;;4.64;61.66;100506.20;105198;1257;60533;-58
2024/03/27 05:20:35;;;;;;;18.10;8.60;;;;;;;4.69;61.83;100506.46;105213;1254;63628;-60
2024/03/27 05:23:03;;;;;;;11.60;6.00;;;;;;;4.76;61.84;100509.02;105193;1260;62630;-59
2024/03/27 05:25:31;;;;;;;11.20;6.20;;;;;;;4.88;61.83;100502.64;105428;1255;63968;-58
2024/03/27 05:27:58;;;;;;;11.10;5.00;;;;;;;5.01;61.93;100501.06;105310;1257;60533;-59
2024/03/27 05:30:26;;;;;;;16.10;7.60;;;;;;;5.15;61.83;100503.09;107125;1257;59182;-59
2024/03/27 05:32:54;;;;;;;10.70;5.20;;;;;;;5.30;62.02;100506.77;104923;1254;65557;-56
2024/03/27 05:35:22;;;;;;;12.70;7.50;;;;;;;5.49;62.33;100510.42;105186;1259;61566;-57
2024/03/27 05:37:50;;;;;;;13.20;6.70;;;;;;;5.68;62.46;100509.32;105658;1257;65237;-57
2024/03/27 05:40:18;;;;;;;13.10;6.70;;;;;;;5.88;62.39;100510.98;105021;1260;60457;-54
2024/03/27 05:42:45;;;;;;;16.30;8.60;;;;;;;6.02;62.45;100509.83;105181;1256;60843;-60
2024/03/27 05:45:13;;;;;;;14.90;7.70;;;;;;;6.15;62.59;100515.00;105163;1260;64962;-59
2024/03/27 05:47:42;;;;;;;13.60;7.20;;;;;;;6.25;62.47;100516.83;104893;1256;61482;-60
2024/03/27 05:50:10;;;;;;;19.80;8.70;;;;;;;6.31;62.39;100519.06;105968;1259;64881;-63
2024/03/27 05:52:37;;;;;;;14.00;7.70;;;;;;;6.37;62.36;100522.40;104915;1256;60440;-60
2024/03/27 05:55:06;;;;;;;15.30;6.80;;;;;;;6.41;62.41;100526.16;105054;1260;60373;-52
2024/03/27 05:57:33;;;;;;;14.20;7.60;;;;;;;6.45;62.28;100530.26;105326;1256;64892;-62
2024/03/27 06:00:01;;;;;;;15.30;8.20;;;;;;;6.50;62.36;100534.65;107031;1261;61467;-62
2024/03/27 06:02:38;;;;;;;15.90;6.70;;;;;;;6.59;62.46;100540.94;106059;1256;62495;-57
2024/03/27 06:05:06;;;;;;;14.10;7.60;;;;;;;6.66;62.44;100544.54;105077;1255;60427;-55
2024/03/27 06:07:34;;;;;;;11.30;4.50;;;;;;;6.76;62.43;100551.05;107054;1253;60539;-55
2024/03/27 06:10:01;;;;;;;14.00;5.80;;;;;;;6.93;62.29;100554.04;105150;1256;65644;-49
2024/03/27 06:12:29;;;;;;;9.80;4.70;;;;;;;7.09;62.20;100553.39;105288;1254;61996;-47
2024/03/27 06:14:56;;;;;;;9.20;4.00;;;;;;;7.24;62.07;100555.24;105235;1255;63709;-57
2024/03/27 06:17:24;;;;;;;11.60;5.20;;;;;;;7.39;61.89;100550.30;106560;1254;60795;-56
2024/03/27 06:19:52;;;;;;;9.50;4.50;;;;;;;7.52;61.62;100546.80;106051;1253;60514;-56
2024/03/27 06:22:19;;;;;;;10.60;5.70;;;;;;;7.68;61.58;100544.57;105188;1251;63612;-56
2024/03/27 06:24:47;;;;;;;11.90;6.30;;;;;;;7.81;61.49;100547.23;105375;1254;62653;-56
2024/03/27 06:27:14;;;;;;;17.50;13.20;;;;;;;7.93;61.45;100552.55;105416;1257;63747;-57
2024/03/27 06:29:42;;;;;;;12.20;5.50;;;;;;;8.02;61.31;100556.64;105335;1251;60377;-55
2024/03/27 06:32:10;;;;;;;14.60;8.10;;;;;;;8.11;61.09;100556.77;105356;1256;60361;-55
2024/03/27 06:34:39;;;;;;;12.60;6.20;;;;;;;8.20;60.97;100556.66;108828;1254;65269;-56
2024/03/27 06:37:07;;;;;;;10.20;4.80;;;;;;;8.30;60.64;100556.55;105151;1257;61607;-54
2024/03/27 06:39:34;;;;;;;16.40;11.90;;;;;;;8.40;60.33;100554.12;105195;1257;63689;-58
2024/03/27 06:42:03;;;;;;;6.80;3.30;;;;;;;8.49;59.81;100554.56;105218;1257;60517;-57
2024/03/27 06:44:31;;;;;;;10.60;5.80;;;;;;;8.61;59.50;100548.47;105633;1251;60511;-62
2024/03/27 06:47:00;;;;;;;8.90;3.70;;;;;;;8.74;59.02;100545.48;105269;1254;65381;-62
2024/03/27 06:49:32;;;;;;;9.60;6.30;;;;;;;8.88;58.43;100543.33;106373;1256;60515;-64
2024/03/27 06:51:59;;;;;;;7.80;2.20;;;;;;;9.01;57.86;100546.41;105161;1252;63737;-64
2024/03/27 06:54:27;;;;;;;7.80;4.40;;;;;;;9.14;57.33;100548.33;109268;1251;58914;-66
2024/03/27 06:56:55;;;;;;;4.20;1.60;;;;;;;9.26;56.67;100551.83;109328;1254;58134;-66
2024/03/27 06:59:24;;;;;;;6.90;3.50;;;;;;;9.35;55.99;100549.58;106702;1253;68194;-66
2024/03/27 07:01:52;;;;;;;3.90;0.90;;;;;;;9.42;55.44;100550.88;105440;1254;61875;-64
2024/03/27 07:04:19;;;;;;;4.40;2.00;;;;;;;9.45;54.87;100552.06;108530;1251;66524;-64
2024/03/27 07:06:47;;;;;;;3.30;0.70;;;;;;;9.47;54.42;100555.70;105204;1251;60428;-63
2024/03/27 07:09:14;;;;;;;7.30;1.70;;;;;;;9.46;53.66;100556.65;105220;1256;60465;-64
2024/03/27 07:11:42;;;;;;;4.60;2.10;;;;;;;9.43;53.08;100560.36;105340;1251;64853;-64
2024/03/27 07:14:10;;;;;;;4.00;0.90;;;;;;;9.41;52.68;100561.23;105526;1251;61866;-65
2024/03/27 07:16:37;;;;;;;5.80;2.00;;;;;;;9.40;52.48;100560.08;105716;1253;62492;-66
2024/03/27 07:19:11;;;;;;;3.60;1.10;;;;;;;9.42;52.33;100560.61;105729;1252;60412;-65
2024/03/27 07:21:38;;;;;;;6.50;2.80;;;;;;;9.45;52.13;100559.20;106278;1251;60531;-64
2024/03/27 07:24:06;;;;;;;3.90;1.80;;;;;;;9.47;52.18;100560.44;105324;1256;63703;-65
2024/03/27 07:26:38;;;;;;;3.90;1.10;;;;;;;9.49;51.90;100561.17;106484;1254;70422;-67
2024/03/27 07:29:05;;;;;;;7.40;3.00;;;;;;;9.53;51.97;100557.45;105572;1254;73577;-64
2024/03/27 07:31:33;;;;;;;3.00;1.20;;;;;;;9.56;51.61;100556.31;105611;1256;60601;-63
2024/03/27 07:34:00;;;;;;;5.90;3.30;;;;;;;9.59;51.55;100556.59;105414;1251;60447;-62
2024/03/27 07:36:28;;;;;;;6.60;2.50;;;;;;;9.64;51.66;100555.40;105319;1256;67326;-63
2024/03/27 07:38:56;;;;;;;4.40;1.80;;;;;;;9.71;51.83;100557.56;105786;1251;71365;-62
2024/03/27 07:41:23;;;;;;;6.90;3.90;;;;;;;9.75;51.88;100560.20;105350;1254;64043;-63
2024/03/27 07:43:51;;;;;;;9.50;2.10;;;;;;;9.80;51.90;100559.66;105400;1251;60524;-64
2024/03/27 07:46:19;;;;;;;7.60;4.40;;;;;;;9.89;51.98;100555.68;105915;1251;60709;-64
2024/03/27 07:48:49;;;;;;;4.50;1.50;;;;;;;10.02;52.10;100554.02;105952;1256;67586;-62
2024/03/27 07:51:18;;;;;;;7.70;4.40;;;;;;;10.19;52.17;100549.70;105193;1256;70026;-63
2024/03/27 07:53:46;;;;;;;6.80;2.00;;;;;;;10.31;51.74;100546.36;105484;1251;62885;-63
2024/03/27 07:56:13;;;;;;;6.60;3.70;;;;;;;10.42;51.02;100544.02;105211;1256;60533;-65
2024/03/27 07:58:41;;;;;;;4.10;1.20;;;;;;;10.50;50.44;100540.02;105197;1251;60578;-61
2024/03/27 08:01:08;;;;;;;7.90;4.40;;;;;;;10.56;49.95;100527.48;106022;1258;65431;-64
2024/03/27 08:03:36;;;;;;;6.10;2.10;;;;;;;10.61;49.44;100525.85;105403;1251;60623;-58
2024/03/27 08:06:04;;;;;;;9.60;4.80;;;;;;;10.67;49.44;100524.52;105281;1256;66226;-62
2024/03/27 08:08:33;;;;;;;5.90;2.20;;;;;;;10.72;49.38;100525.16;105784;1258;60639;-62
2024/03/27 08:11:01;;;;;;;7.10;3.90;;;;;;;10.76;48.85;100524.50;105515;1251;60466;-61
2024/03/27 08:13:29;;;;;;;6.90;3.90;;;;;;;10.78;48.07;100525.71;105809;1257;65356;-63
2024/03/27 08:15:57;;;;;;;5.30;1.50;;;;;;;10.81;47.79;100524.10;105374;1257;71567;-62
2024/03/27 08:18:24;;;;;;;9.40;4.30;;;;;;;10.83;46.80;100523.45;105380;1251;62996;-63
2024/03/27 08:20:55;;;;;;;7.30;3.50;;;;;;;10.85;46.39;100523.98;105344;1257;62647;-63
2024/03/27 08:23:26;;;;;;;4.00;1.50;;;;;;;10.89;46.22;100522.45;105172;1257;60485;-61
2024/03/27 08:25:53;;;;;;;7.50;4.10;;;;;;;10.91;45.82;100520.33;105213;1254;67096;-60
2024/03/27 08:28:21;;;;;;;6.70;2.90;;;;;;;10.94;45.11;100519.20;105784;1251;63616;-61
2024/03/27 08:30:51;;;;;;;7.60;3.50;;;;;;;10.99;44.77;100514.98;105880;1256;62908;-58
2024/03/27 08:33:19;;;;;;;8.10;2.10;;;;;;;11.05;44.82;100515.73;105928;1254;61362;-65
2024/03/27 08:35:53;;;;;;;7.20;3.20;;;;;;;11.11;44.57;100513.49;105409;1257;61763;-61
2024/03/27 08:38:20;;;;;;;6.60;2.60;;;;;;;11.19;44.18;100513.59;105398;1251;64759;-63
2024/03/27 08:40:51;;;;;;;5.60;1.30;;;;;;;11.23;43.43;100510.59;105235;1256;61318;-60
2024/03/27 08:43:19;;;;;;;5.30;1.90;;;;;;;11.25;43.07;100505.48;109369;1253;64950;-64
2024/03/27 08:45:47;;;;;;;5.60;1.70;;;;;;;11.30;42.78;100502.30;106075;1257;61472;-63
2024/03/27 08:48:14;;;;;;;4.70;2.20;;;;;;;11.36;42.51;100503.63;105214;1251;61329;-63
2024/03/27 08:50:42;;;;;;;5.90;2.70;;;;;;;11.40;42.15;100501.55;105424;1254;65933;-64
2024/03/27 08:53:09;;;;;;;5.60;2.30;;;;;;;11.43;41.87;100495.82;105673;1254;62141;-63
2024/03/27 08:55:43;;;;;;;6.40;2.40;;;;;;;11.48;41.54;100503.63;105415;1254;64931;-63
2024/03/27 08:58:10;;;;;;;3.60;0.90;;;;;;;11.53;41.07;100502.67;105370;1251;61468;-61
2024/03/27 09:00:38;;;;;;;4.40;1.60;;;;;;;11.59;40.80;100501.67;105207;1257;61122;-61
2024/03/27 09:03:06;;;;;;;5.20;1.70;;;;;;;11.65;40.24;100499.27;105220;1257;67024;-63
2024/03/27 09:05:33;;;;;;;4.10;1.50;;;;;;;11.72;40.37;100494.65;105184;1256;62288;-62
2024/03/27 09:08:01;;;;;;;4.80;2.00;;;;;;;11.80;40.39;100491.21;105439;1257;65798;-61
2024/03/27 09:10:29;;;;;;;3.40;0.80;;;;;;;11.87;40.57;100484.42;105784;1255;61237;-60
2024/03/27 09:12:57;;;;;;;5.90;2.10;;;;;;;11.94;40.74;100480.71;105190;1251;62221;-60
2024/03/27 09:15:25;;;;;;;4.80;1.70;;;;;;;11.99;40.89;100474.14;105227;1251;64532;-61
2024/03/27 09:17:52;;;;;;;6.10;1.50;;;;;;;12.05;40.55;100465.73;105202;1251;70658;-60
2024/03/27 09:20:23;;;;;;;5.20;2.50;;;;;;;12.11;40.29;100463.16;105174;1257;65840;-62
2024/03/27 09:22:50;;;;;;;5.60;2.50;;;;;;;12.15;40.38;100460.36;105036;1258;61314;-62
2024/03/27 09:25:18;;;;;;;5.20;2.20;;;;;;;12.16;41.01;100460.27;105083;1256;62655;-62
2024/03/27 09:27:46;;;;;;;6.10;2.30;;;;;;;12.21;40.88;100459.13;105053;1251;64575;-61
2024/03/27 09:30:16;;;;;;;6.70;2.30;;;;;;;12.28;40.12;100456.08;105146;1257;62773;-61
2024/03/27 09:32:45;;;;;;;2.90;0.90;;;;;;;12.35;39.53;100459.70;106204;1257;64070;-59
2024/03/27 09:35:12;;;;;;;5.20;2.60;;;;;;;12.38;39.31;100463.98;107813;1251;60534;-60
2024/03/27 09:37:41;;;;;;;5.80;2.60;;;;;;;12.40;39.24;100468.24;105320;1256;62005;-59
2024/03/27 09:40:09;;;;;;;7.70;3.10;;;;;;;12.41;39.80;100466.86;105340;1251;64557;-54
2024/03/27 09:42:37;;;;;;;7.90;3.30;;;;;;;12.44;39.90;100462.77;105389;1251;63752;-55
2024/03/27 09:45:06;;;;;;;6.40;3.50;;;;;;;12.44;40.23;100458.73;105189;1257;63927;-51
2024/03/27 09:47:34;;;;;;;7.00;3.90;;;;;;;12.40;41.06;100460.15;106374;1256;61297;-56
2024/03/27 09:50:01;;;;;;;7.50;3.70;;;;;;;12.36;40.89;100458.14;105182;1254;61463;-61
2024/03/27 09:52:29;;;;;;;7.90;3.60;;;;;;;12.33;40.84;100455.60;105354;1256;68090;-60
2024/03/27 09:54:57;;;;;;;5.10;2.70;;;;;;;12.31;41.01;100455.06;105169;1251;61519;-60
2024/03/27 09:57:24;;;;;;;8.10;3.70;;;;;;;12.34;40.83;100454.85;105235;1254;64216;-55
2024/03/27 09:59:52;;;;;;;6.80;3.20;;;;;;;12.41;41.09;100457.58;109189;1256;59368;-58
2024/03/27 10:02:21;;;;;;;7.50;3.70;;;;;;;12.50;40.99;100458.70;109224;1251;59601;-55
2024/03/27 10:04:48;;;;;;;7.20;3.50;;;;;;;12.57;40.67;100457.60;109267;1251;70437;-58
2024/03/27 10:07:15;;;;;;;6.70;3.60;;;;;;;12.61;40.88;100456.34;109243;1251;63638;-59
2024/03/27 10:09:43;;;;;;;6.90;4.00;;;;;;;12.69;40.93;100453.75;107768;1256;62568;-62
2024/03/27 10:12:12;;;;;;;6.70;3.80;;;;;;;12.81;41.42;100453.21;106103;1251;63220;-59
2024/03/27 10:14:39;;;;;;;7.70;4.10;;;;;;;12.93;41.65;100451.45;105767;1251;60332;-59
2024/03/27 10:17:07;;;;;;;7.60;4.10;;;;;;;13.01;41.38;100449.84;105218;1257;64853;-59
2024/03/27 10:19:34;;;;;;;6.90;3.30;;;;;;;13.07;41.08;100453.69;105281;1254;64113;-58
2024/03/27 10:22:02;;;;;;;7.90;3.60;;;;;;;13.15;41.04;100450.02;104999;1254;65910;-59
2024/03/27 10:24:29;;;;;;;6.80;3.60;;;;;;;13.26;41.25;100447.30;105736;1251;61740;-63
2024/03/27 10:26:57;;;;;;;6.60;3.40;;;;;;;13.39;41.19;100446.14;105316;1251;61423;-59
2024/03/27 10:29:25;;;;;;;6.20;3.20;;;;;;;13.52;40.63;100442.16;105282;1251;64820;-59
2024/03/27 10:31:53;;;;;;;6.50;3.30;;;;;;;13.62;40.60;100442.61;107011;1251;73075;-65
2024/03/27 10:34:21;;;;;;;7.90;4.20;;;;;;;13.71;40.52;100444.08;105882;1254;63945;-58
2024/03/27 10:36:50;;;;;;;7.20;3.70;;;;;;;13.80;40.17;100441.64;105337;1257;61554;-59
2024/03/27 10:39:17;;;;;;;6.30;3.00;;;;;;;13.86;39.83;100443.97;105119;1257;62342;-58
2024/03/27 10:41:45;;;;;;;7.40;3.90;;;;;;;13.88;38.93;100437.89;104937;1251;68010;-57
2024/03/27 10:44:12;;;;;;;6.00;2.90;;;;;;;13.92;37.90;100432.10;105058;1251;71230;-54
2024/03/27 10:46:40;;;;;;;6.10;3.60;;;;;;;13.95;37.78;100435.17;105040;1259;74749;-54
2024/03/27 10:49:07;;;;;;;7.60;4.40;;;;;;;14.00;37.71;100434.52;105128;1253;61327;-60
2024/03/27 10:51:35;;;;;;;6.60;3.60;;;;;;;14.06;37.92;100429.08;104888;1251;62223;-55
2024/03/27 10:54:02;;;;;;;6.90;4.00;;;;;;;14.12;37.78;100425.27;105146;1251;76668;-58
2024/03/27 10:56:30;;;;;;;7.10;4.20;;;;;;;14.17;38.07;100424.80;105013;1252;72549;-57
2024/03/27 10:58:57;;;;;;;7.40;4.60;;;;;;;14.22;38.31;100418.57;105116;1254;64018;-55
2024/03/27 11:01:25;;;;;;;7.60;5.00;;;;;;;14.27;38.25;100416.12;105103;1254;61297;-51
2024/03/27 11:03:52;;;;;;;7.50;4.50;;;;;;;14.32;38.70;100422.70;105167;1256;63104;-54
2024/03/27 11:06:20;;;;;;;7.90;4.50;;;;;;;14.39;38.96;100420.86;105286;1257;66767;-55
2024/03/27 11:08:47;;;;;;;8.10;4.90;;;;;;;14.46;38.60;100412.71;105851;1251;64193;-56
2024/03/27 11:11:15;;;;;;;11.30;5.90;;;;;;;14.48;38.29;100410.23;109246;1253;65938;-57
2024/03/27 11:13:45;;;;;;;10.40;5.20;;;;;;;14.49;38.26;100411.87;106149;1251;61350;-56
2024/03/27 11:16:13;;;;;;;7.60;4.20;;;;;;;14.48;38.52;100413.37;105377;1254;61551;-56
2024/03/27 11:18:45;;;;;;;7.80;4.60;;;;;;;14.50;38.63;100410.73;106236;1257;64863;-57
2024/03/27 11:21:13;;;;;;;11.70;5.50;;;;;;;14.55;38.56;100404.12;105591;1251;72237;-57
2024/03/27 11:23:42;;;;;;;8.30;4.30;;;;;;;14.58;38.33;100396.73;105266;1251;74916;-58